sensor_id;sensor_type;location;lat;lon;timestamp;temperature;humidity
64705;DHT22;51131;52.298;13.686;2022-11-15T00:00:03;18.60;58.20
64705;DHT22;51131;52.298;13.686;2022-11-15T00:02:29;18.50;58.00
64705;DHT22;51131;52.298;13.686;2022-11-15T00:04:56;18.50;58.00
64705;DHT22;51131;52.298;13.686;2022-11-15T00:07:23;18.50;58.00
64705;DHT22;51131;52.298;13.686;2022-11-15T00:10:09;18.50;58.00
64705;DHT22;51131;52.298;13.686;2022-11-15T00:12:36;18.50;57.90
64705;DHT22;51131;52.298;13.686;2022-11-15T00:15:03;18.50;58.00
64705;DHT22;51131;52.298;13.686;2022-11-15T00:17:30;18.50;58.10
64705;DHT22;51131;52.298;13.686;2022-11-15T00:19:57;18.50;57.90
64705;DHT22;51131;52.298;13.686;2022-11-15T00:22:24;18.50;57.90
64705;DHT22;51131;52.298;13.686;2022-11-15T00:24:51;18.50;58.00
64705;DHT22;51131;52.298;13.686;2022-11-15T00:27:17;18.50;58.10
64705;DHT22;51131;52.298;13.686;2022-11-15T00:29:44;18.50;58.10
64705;DHT22;51131;52.298;13.686;2022-11-15T00:32:11;18.50;57.90
64705;DHT22;51131;52.298;13.686;2022-11-15T00:34:37;18.50;58.00
64705;DHT22;51131;52.298;13.686;2022-11-15T00:37:04;18.50;58.20
64705;DHT22;51131;52.298;13.686;2022-11-15T00:39:32;18.50;58.10
64705;DHT22;51131;52.298;13.686;2022-11-15T00:41:59;18.50;58.10
64705;DHT22;51131;52.298;13.686;2022-11-15T00:44:25;18.50;58.00
64705;DHT22;51131;52.298;13.686;2022-11-15T00:46:52;18.40;57.90
64705;DHT22;51131;52.298;13.686;2022-11-15T00:49:19;18.40;58.00
64705;DHT22;51131;52.298;13.686;2022-11-15T00:51:45;18.40;58.00
64705;DHT22;51131;52.298;13.686;2022-11-15T00:54:12;18.40;58.00
64705;DHT22;51131;52.298;13.686;2022-11-15T00:56:39;18.40;58.00
64705;DHT22;51131;52.298;13.686;2022-11-15T00:59:05;18.40;58.10
64705;DHT22;51131;52.298;13.686;2022-11-15T01:01:32;18.40;58.10
64705;DHT22;51131;52.298;13.686;2022-11-15T01:03:59;18.40;57.90
64705;DHT22;51131;52.298;13.686;2022-11-15T01:06:27;18.40;58.00
64705;DHT22;51131;52.298;13.686;2022-11-15T01:08:53;18.40;57.90
64705;DHT22;51131;52.298;13.686;2022-11-15T01:11:20;18.40;57.90
64705;DHT22;51131;52.298;13.686;2022-11-15T01:13:47;18.40;57.90
64705;DHT22;51131;52.298;13.686;2022-11-15T01:16:16;18.40;57.90
64705;DHT22;51131;52.298;13.686;2022-11-15T01:18:43;18.40;57.70
64705;DHT22;51131;52.298;13.686;2022-11-15T01:21:11;18.40;57.70
64705;DHT22;51131;52.298;13.686;2022-11-15T01:23:38;18.50;57.90
64705;DHT22;51131;52.298;13.686;2022-11-15T01:26:05;18.60;58.10
64705;DHT22;51131;52.298;13.686;2022-11-15T01:28:33;18.70;58.70
64705;DHT22;51131;52.298;13.686;2022-11-15T01:31:00;18.70;58.80
64705;DHT22;51131;52.298;13.686;2022-11-15T01:33:28;18.70;58.60
64705;DHT22;51131;52.298;13.686;2022-11-15T01:35:56;18.70;58.20
64705;DHT22;51131;52.298;13.686;2022-11-15T01:38:22;18.70;58.50
64705;DHT22;51131;52.298;13.686;2022-11-15T01:40:49;18.70;58.50
64705;DHT22;51131;52.298;13.686;2022-11-15T01:43:19;18.60;58.30
64705;DHT22;51131;52.298;13.686;2022-11-15T01:45:48;18.60;58.00
64705;DHT22;51131;52.298;13.686;2022-11-15T01:48:17;18.60;58.00
64705;DHT22;51131;52.298;13.686;2022-11-15T01:50:44;18.60;57.90
64705;DHT22;51131;52.298;13.686;2022-11-15T01:53:11;18.60;57.90
64705;DHT22;51131;52.298;13.686;2022-11-15T01:55:37;18.60;57.80
64705;DHT22;51131;52.298;13.686;2022-11-15T01:58:04;18.60;57.60
64705;DHT22;51131;52.298;13.686;2022-11-15T02:00:32;18.60;57.70
64705;DHT22;51131;52.298;13.686;2022-11-15T02:02:58;18.50;57.70
64705;DHT22;51131;52.298;13.686;2022-11-15T02:05:25;18.50;57.60
64705;DHT22;51131;52.298;13.686;2022-11-15T02:07:52;18.50;57.80
64705;DHT22;51131;52.298;13.686;2022-11-15T02:10:21;18.50;57.60
64705;DHT22;51131;52.298;13.686;2022-11-15T02:12:49;18.50;57.60
64705;DHT22;51131;52.298;13.686;2022-11-15T02:15:15;18.50;57.50
64705;DHT22;51131;52.298;13.686;2022-11-15T02:31:04;18.50;57.30
64705;DHT22;51131;52.298;13.686;2022-11-15T02:33:38;18.40;57.40
64705;DHT22;51131;52.298;13.686;2022-11-15T02:36:13;18.40;57.50
64705;DHT22;51131;52.298;13.686;2022-11-15T02:38:47;18.40;57.50
64705;DHT22;51131;52.298;13.686;2022-11-15T02:41:17;18.40;57.30
64705;DHT22;51131;52.298;13.686;2022-11-15T02:43:47;18.40;57.40
64705;DHT22;51131;52.298;13.686;2022-11-15T02:46:26;18.40;57.40
64705;DHT22;51131;52.298;13.686;2022-11-15T02:49:14;18.40;57.30
64705;DHT22;51131;52.298;13.686;2022-11-15T02:51:41;18.40;57.30
64705;DHT22;51131;52.298;13.686;2022-11-15T02:54:23;18.40;57.30
64705;DHT22;51131;52.298;13.686;2022-11-15T02:56:51;18.40;57.30
64705;DHT22;51131;52.298;13.686;2022-11-15T03:04:50;18.40;57.30
64705;DHT22;51131;52.298;13.686;2022-11-15T03:10:10;18.40;57.40
64705;DHT22;51131;52.298;13.686;2022-11-15T03:12:46;18.40;57.30
64705;DHT22;51131;52.298;13.686;2022-11-15T03:15:20;18.40;57.50
64705;DHT22;51131;52.298;13.686;2022-11-15T03:17:49;18.40;57.30
64705;DHT22;51131;52.298;13.686;2022-11-15T03:20:18;18.30;57.30
64705;DHT22;51131;52.298;13.686;2022-11-15T03:22:45;18.40;57.40
64705;DHT22;51131;52.298;13.686;2022-11-15T03:25:16;18.30;57.20
64705;DHT22;51131;52.298;13.686;2022-11-15T03:27:44;18.30;57.30
64705;DHT22;51131;52.298;13.686;2022-11-15T03:30:13;18.40;57.30
64705;DHT22;51131;52.298;13.686;2022-11-15T03:32:41;18.30;57.30
64705;DHT22;51131;52.298;13.686;2022-11-15T03:35:10;18.30;57.40
64705;DHT22;51131;52.298;13.686;2022-11-15T03:37:44;18.30;57.40
64705;DHT22;51131;52.298;13.686;2022-11-15T03:40:12;18.30;57.40
64705;DHT22;51131;52.298;13.686;2022-11-15T03:47:39;18.30;57.30
64705;DHT22;51131;52.298;13.686;2022-11-15T03:50:10;18.30;57.40
64705;DHT22;51131;52.298;13.686;2022-11-15T03:52:38;18.30;57.50
64705;DHT22;51131;52.298;13.686;2022-11-15T03:55:07;18.30;57.50
64705;DHT22;51131;52.298;13.686;2022-11-15T03:57:34;18.30;57.40
64705;DHT22;51131;52.298;13.686;2022-11-15T04:00:01;18.30;57.30
64705;DHT22;51131;52.298;13.686;2022-11-15T04:02:27;18.40;57.40
64705;DHT22;51131;52.298;13.686;2022-11-15T04:04:54;18.50;57.40
64705;DHT22;51131;52.298;13.686;2022-11-15T04:07:21;18.50;58.00
64705;DHT22;51131;52.298;13.686;2022-11-15T04:09:48;18.60;58.50
64705;DHT22;51131;52.298;13.686;2022-11-15T04:12:30;18.60;58.30
64705;DHT22;51131;52.298;13.686;2022-11-15T04:15:02;18.60;58.20
64705;DHT22;51131;52.298;13.686;2022-11-15T04:20:06;18.60;58.10
64705;DHT22;51131;52.298;13.686;2022-11-15T04:22:52;18.60;58.00
64705;DHT22;51131;52.298;13.686;2022-11-15T04:25:37;18.50;57.70
64705;DHT22;51131;52.298;13.686;2022-11-15T04:28:04;18.50;57.70
64705;DHT22;51131;52.298;13.686;2022-11-15T04:30:31;18.50;57.60
64705;DHT22;51131;52.298;13.686;2022-11-15T04:32:58;18.50;57.40
64705;DHT22;51131;52.298;13.686;2022-11-15T04:35:25;18.50;57.30
64705;DHT22;51131;52.298;13.686;2022-11-15T04:37:51;18.50;57.20
64705;DHT22;51131;52.298;13.686;2022-11-15T04:40:18;18.50;57.10
64705;DHT22;51131;52.298;13.686;2022-11-15T04:42:45;18.50;57.10
64705;DHT22;51131;52.298;13.686;2022-11-15T04:45:12;18.50;57.20
64705;DHT22;51131;52.298;13.686;2022-11-15T04:47:38;18.40;57.20
64705;DHT22;51131;52.298;13.686;2022-11-15T04:50:05;18.40;57.00
64705;DHT22;51131;52.298;13.686;2022-11-15T04:52:32;18.40;57.30
64705;DHT22;51131;52.298;13.686;2022-11-15T04:54:59;18.50;57.80
64705;DHT22;51131;52.298;13.686;2022-11-15T04:57:33;18.50;58.00
64705;DHT22;51131;52.298;13.686;2022-11-15T04:59:59;18.50;57.90
64705;DHT22;51131;52.298;13.686;2022-11-15T05:02:26;18.50;57.90
64705;DHT22;51131;52.298;13.686;2022-11-15T05:05:13;18.50;58.10
64705;DHT22;51131;52.298;13.686;2022-11-15T05:07:39;18.50;57.70
64705;DHT22;51131;52.298;13.686;2022-11-15T05:10:06;18.50;57.70
64705;DHT22;51131;52.298;13.686;2022-11-15T05:12:33;18.50;57.90
64705;DHT22;51131;52.298;13.686;2022-11-15T05:15:00;18.50;57.80
64705;DHT22;51131;52.298;13.686;2022-11-15T05:17:26;18.50;57.80
64705;DHT22;51131;52.298;13.686;2022-11-15T05:19:53;18.50;57.90
64705;DHT22;51131;52.298;13.686;2022-11-15T05:22:20;18.50;57.70
64705;DHT22;51131;52.298;13.686;2022-11-15T05:24:46;18.50;57.70
64705;DHT22;51131;52.298;13.686;2022-11-15T05:27:13;18.50;57.60
64705;DHT22;51131;52.298;13.686;2022-11-15T05:29:40;18.50;57.70
64705;DHT22;51131;52.298;13.686;2022-11-15T05:32:08;18.50;57.70
64705;DHT22;51131;52.298;13.686;2022-11-15T05:34:35;18.60;57.80
64705;DHT22;51131;52.298;13.686;2022-11-15T05:37:02;18.50;57.90
64705;DHT22;51131;52.298;13.686;2022-11-15T05:39:32;18.50;58.10
64705;DHT22;51131;52.298;13.686;2022-11-15T05:42:00;18.50;57.90
64705;DHT22;51131;52.298;13.686;2022-11-15T05:44:27;18.50;57.50
64705;DHT22;51131;52.298;13.686;2022-11-15T05:46:54;18.50;57.30
64705;DHT22;51131;52.298;13.686;2022-11-15T05:49:23;18.50;57.60
64705;DHT22;51131;52.298;13.686;2022-11-15T05:51:51;18.50;57.80
64705;DHT22;51131;52.298;13.686;2022-11-15T05:54:18;18.50;58.00
64705;DHT22;51131;52.298;13.686;2022-11-15T05:56:45;18.50;58.00
64705;DHT22;51131;52.298;13.686;2022-11-15T05:59:12;18.50;57.80
64705;DHT22;51131;52.298;13.686;2022-11-15T06:01:39;18.50;57.30
64705;DHT22;51131;52.298;13.686;2022-11-15T06:04:06;18.50;57.30
64705;DHT22;51131;52.298;13.686;2022-11-15T06:06:32;18.50;57.80
64705;DHT22;51131;52.298;13.686;2022-11-15T06:08:59;18.50;58.10
64705;DHT22;51131;52.298;13.686;2022-11-15T06:11:26;18.50;57.90
64705;DHT22;51131;52.298;13.686;2022-11-15T06:13:52;18.50;58.10
64705;DHT22;51131;52.298;13.686;2022-11-15T06:16:19;18.50;58.20
64705;DHT22;51131;52.298;13.686;2022-11-15T06:18:46;18.50;57.60
64705;DHT22;51131;52.298;13.686;2022-11-15T06:21:13;18.50;57.30
64705;DHT22;51131;52.298;13.686;2022-11-15T06:23:39;18.50;57.50
64705;DHT22;51131;52.298;13.686;2022-11-15T06:26:06;18.50;58.10
64705;DHT22;51131;52.298;13.686;2022-11-15T06:28:33;18.50;58.10
64705;DHT22;51131;52.298;13.686;2022-11-15T06:31:07;18.50;57.90
64705;DHT22;51131;52.298;13.686;2022-11-15T06:33:34;18.50;57.60
64705;DHT22;51131;52.298;13.686;2022-11-15T06:36:04;18.50;57.30
64705;DHT22;51131;52.298;13.686;2022-11-15T06:38:31;18.50;57.20
64705;DHT22;51131;52.298;13.686;2022-11-15T06:41:04;18.50;57.80
64705;DHT22;51131;52.298;13.686;2022-11-15T06:43:31;18.50;57.90
64705;DHT22;51131;52.298;13.686;2022-11-15T06:45:59;18.50;57.40
64705;DHT22;51131;52.298;13.686;2022-11-15T06:48:27;18.50;57.60
64705;DHT22;51131;52.298;13.686;2022-11-15T06:50:54;18.60;57.80
64705;DHT22;51131;52.298;13.686;2022-11-15T06:53:21;18.60;58.00
64705;DHT22;51131;52.298;13.686;2022-11-15T06:55:48;18.70;57.90
64705;DHT22;51131;52.298;13.686;2022-11-15T06:58:21;18.80;57.70
64705;DHT22;51131;52.298;13.686;2022-11-15T07:00:48;18.80;57.60
64705;DHT22;51131;52.298;13.686;2022-11-15T07:03:15;18.80;57.40
64705;DHT22;51131;52.298;13.686;2022-11-15T07:05:41;18.70;57.40
64705;DHT22;51131;52.298;13.686;2022-11-15T07:08:08;18.70;57.30
64705;DHT22;51131;52.298;13.686;2022-11-15T07:10:36;18.70;57.40
64705;DHT22;51131;52.298;13.686;2022-11-15T07:13:02;18.70;57.30
64705;DHT22;51131;52.298;13.686;2022-11-15T07:15:29;18.60;57.30
64705;DHT22;51131;52.298;13.686;2022-11-15T07:17:56;18.70;57.40
64705;DHT22;51131;52.298;13.686;2022-11-15T07:20:26;18.60;57.50
64705;DHT22;51131;52.298;13.686;2022-11-15T07:22:59;18.60;57.50
64705;DHT22;51131;52.298;13.686;2022-11-15T07:25:26;18.60;57.50
64705;DHT22;51131;52.298;13.686;2022-11-15T07:27:56;18.60;57.40
64705;DHT22;51131;52.298;13.686;2022-11-15T07:30:23;18.60;57.50
64705;DHT22;51131;52.298;13.686;2022-11-15T07:32:57;18.60;57.50
64705;DHT22;51131;52.298;13.686;2022-11-15T07:35:24;18.60;57.70
64705;DHT22;51131;52.298;13.686;2022-11-15T07:40:21;18.60;57.50
64705;DHT22;51131;52.298;13.686;2022-11-15T07:42:48;18.60;57.40
64705;DHT22;51131;52.298;13.686;2022-11-15T07:45:22;18.60;57.90
64705;DHT22;51131;52.298;13.686;2022-11-15T07:47:49;18.60;57.90
64705;DHT22;51131;52.298;13.686;2022-11-15T07:50:16;18.60;57.90
64705;DHT22;51131;52.298;13.686;2022-11-15T07:52:43;18.60;57.90
64705;DHT22;51131;52.298;13.686;2022-11-15T07:55:10;18.60;57.80
64705;DHT22;51131;52.298;13.686;2022-11-15T07:57:37;18.60;58.10
64705;DHT22;51131;52.298;13.686;2022-11-15T08:00:04;18.60;57.90
64705;DHT22;51131;52.298;13.686;2022-11-15T08:02:31;18.60;57.70
64705;DHT22;51131;52.298;13.686;2022-11-15T08:04:58;18.60;57.90
64705;DHT22;51131;52.298;13.686;2022-11-15T08:07:28;18.60;58.20
64705;DHT22;51131;52.298;13.686;2022-11-15T08:09:55;18.60;58.10
64705;DHT22;51131;52.298;13.686;2022-11-15T08:12:22;18.60;58.10
64705;DHT22;51131;52.298;13.686;2022-11-15T08:14:49;18.60;58.20
64705;DHT22;51131;52.298;13.686;2022-11-15T08:17:16;18.60;58.20
64705;DHT22;51131;52.298;13.686;2022-11-15T08:19:42;18.60;58.20
64705;DHT22;51131;52.298;13.686;2022-11-15T08:22:09;18.60;58.30
64705;DHT22;51131;52.298;13.686;2022-11-15T08:24:36;18.60;57.90
64705;DHT22;51131;52.298;13.686;2022-11-15T08:27:02;18.60;57.90
64705;DHT22;51131;52.298;13.686;2022-11-15T08:29:29;18.60;58.40
64705;DHT22;51131;52.298;13.686;2022-11-15T08:31:56;18.60;58.30
64705;DHT22;51131;52.298;13.686;2022-11-15T08:34:23;18.60;58.30
64705;DHT22;51131;52.298;13.686;2022-11-15T08:36:49;18.60;58.40
64705;DHT22;51131;52.298;13.686;2022-11-15T08:39:16;18.60;58.40
64705;DHT22;51131;52.298;13.686;2022-11-15T08:41:43;18.60;58.40
64705;DHT22;51131;52.298;13.686;2022-11-15T08:44:11;18.60;58.40
64705;DHT22;51131;52.298;13.686;2022-11-15T08:46:37;18.60;58.10
64705;DHT22;51131;52.298;13.686;2022-11-15T08:49:04;18.60;58.30
64705;DHT22;51131;52.298;13.686;2022-11-15T08:51:31;18.60;58.60
64705;DHT22;51131;52.298;13.686;2022-11-15T08:53:58;18.60;58.50
64705;DHT22;51131;52.298;13.686;2022-11-15T08:56:24;18.60;58.50
64705;DHT22;51131;52.298;13.686;2022-11-15T08:58:51;18.60;58.60
64705;DHT22;51131;52.298;13.686;2022-11-15T09:01:19;18.60;58.60
64705;DHT22;51131;52.298;13.686;2022-11-15T09:03:46;18.60;58.60
64705;DHT22;51131;52.298;13.686;2022-11-15T09:06:13;18.60;58.50
64705;DHT22;51131;52.298;13.686;2022-11-15T09:08:39;18.60;58.20
64705;DHT22;51131;52.298;13.686;2022-11-15T09:11:13;18.60;58.60
64705;DHT22;51131;52.298;13.686;2022-11-15T09:13:41;18.60;58.80
64705;DHT22;51131;52.298;13.686;2022-11-15T09:16:07;18.60;58.70
64705;DHT22;51131;52.298;13.686;2022-11-15T09:18:34;18.60;58.70
64705;DHT22;51131;52.298;13.686;2022-11-15T09:21:01;18.60;58.80
64705;DHT22;51131;52.298;13.686;2022-11-15T09:23:29;18.60;59.00
64705;DHT22;51131;52.298;13.686;2022-11-15T09:26:02;18.60;58.90
64705;DHT22;51131;52.298;13.686;2022-11-15T09:28:30;18.60;58.70
64705;DHT22;51131;52.298;13.686;2022-11-15T09:30:58;18.60;58.70
64705;DHT22;51131;52.298;13.686;2022-11-15T09:33:25;18.60;59.00
64705;DHT22;51131;52.298;13.686;2022-11-15T09:35:52;18.60;59.00
64705;DHT22;51131;52.298;13.686;2022-11-15T09:38:20;18.60;59.10
64705;DHT22;51131;52.298;13.686;2022-11-15T09:40:51;18.60;59.10
64705;DHT22;51131;52.298;13.686;2022-11-15T09:43:35;18.60;59.20
64705;DHT22;51131;52.298;13.686;2022-11-15T09:51:22;18.60;59.10
64705;DHT22;51131;52.298;13.686;2022-11-15T09:53:56;18.60;59.30
64705;DHT22;51131;52.298;13.686;2022-11-15T09:56:43;18.60;59.30
64705;DHT22;51131;52.298;13.686;2022-11-15T10:04:43;18.60;59.60
64705;DHT22;51131;52.298;13.686;2022-11-15T10:07:18;18.60;59.60
64705;DHT22;51131;52.298;13.686;2022-11-15T10:12:12;18.70;59.60
64705;DHT22;51131;52.298;13.686;2022-11-15T10:14:39;18.70;59.80
64705;DHT22;51131;52.298;13.686;2022-11-15T10:22:28;18.60;59.70
64705;DHT22;51131;52.298;13.686;2022-11-15T10:25:38;18.60;59.90
64705;DHT22;51131;52.298;13.686;2022-11-15T10:27:47;18.60;60.00
64705;DHT22;51131;52.298;13.686;2022-11-15T10:30:17;18.70;60.00
64705;DHT22;51131;52.298;13.686;2022-11-15T10:32:46;18.70;60.00
64705;DHT22;51131;52.298;13.686;2022-11-15T10:35:24;18.70;60.00
64705;DHT22;51131;52.298;13.686;2022-11-15T10:37:51;18.70;60.00
64705;DHT22;51131;52.298;13.686;2022-11-15T10:40:19;18.70;60.10
64705;DHT22;51131;52.298;13.686;2022-11-15T10:42:46;18.60;60.00
64705;DHT22;51131;52.298;13.686;2022-11-15T10:45:27;18.70;60.00
64705;DHT22;51131;52.298;13.686;2022-11-15T10:47:59;18.70;60.30
64705;DHT22;51131;52.298;13.686;2022-11-15T10:50:44;18.60;60.10
64705;DHT22;51131;52.298;13.686;2022-11-15T10:55:51;18.70;60.30
64705;DHT22;51131;52.298;13.686;2022-11-15T11:00:48;18.70;60.40
64705;DHT22;51131;52.298;13.686;2022-11-15T11:03:34;18.70;60.30
64705;DHT22;51131;52.298;13.686;2022-11-15T11:08:31;18.60;60.40
64705;DHT22;51131;52.298;13.686;2022-11-15T11:10:59;18.70;60.30
64705;DHT22;51131;52.298;13.686;2022-11-15T11:13:30;18.70;60.50
64705;DHT22;51131;52.298;13.686;2022-11-15T11:18:49;18.70;60.50
64705;DHT22;51131;52.298;13.686;2022-11-15T11:22:01;18.70;60.50
64705;DHT22;51131;52.298;13.686;2022-11-15T11:24:14;18.70;60.60
64705;DHT22;51131;52.298;13.686;2022-11-15T11:29:20;18.70;60.70
64705;DHT22;51131;52.298;13.686;2022-11-15T11:31:59;18.70;60.70
64705;DHT22;51131;52.298;13.686;2022-11-15T11:37:00;18.90;61.00
64705;DHT22;51131;52.298;13.686;2022-11-15T11:47:21;19.10;60.40
64705;DHT22;51131;52.298;13.686;2022-11-15T11:49:50;19.00;60.30
64705;DHT22;51131;52.298;13.686;2022-11-15T11:52:34;19.00;60.40
64705;DHT22;51131;52.298;13.686;2022-11-15T11:55:11;19.00;60.50
64705;DHT22;51131;52.298;13.686;2022-11-15T11:57:41;19.00;60.60
64705;DHT22;51131;52.298;13.686;2022-11-15T12:05:35;19.00;60.60
64705;DHT22;51131;52.298;13.686;2022-11-15T12:11:07;19.00;60.80
64705;DHT22;51131;52.298;13.686;2022-11-15T12:13:35;18.90;60.80
64705;DHT22;51131;52.298;13.686;2022-11-15T12:18:36;18.90;60.90
64705;DHT22;51131;52.298;13.686;2022-11-15T12:21:05;18.90;60.90
64705;DHT22;51131;52.298;13.686;2022-11-15T12:23:44;18.90;61.00
64705;DHT22;51131;52.298;13.686;2022-11-15T12:26:23;18.90;61.10
64705;DHT22;51131;52.298;13.686;2022-11-15T12:36:42;18.90;61.20
64705;DHT22;51131;52.298;13.686;2022-11-15T12:39:11;18.80;61.10
64705;DHT22;51131;52.298;13.686;2022-11-15T12:41:39;18.80;61.10
64705;DHT22;51131;52.298;13.686;2022-11-15T12:44:13;18.80;61.20
64705;DHT22;51131;52.298;13.686;2022-11-15T12:47:01;18.80;61.10
64705;DHT22;51131;52.298;13.686;2022-11-15T13:17:41;18.80;61.40
64705;DHT22;51131;52.298;13.686;2022-11-15T13:22:45;18.90;61.50
64705;DHT22;51131;52.298;13.686;2022-11-15T13:28:18;18.80;61.50
64705;DHT22;51131;52.298;13.686;2022-11-15T13:33:16;18.80;61.50
64705;DHT22;51131;52.298;13.686;2022-11-15T13:35:45;18.80;61.60
64705;DHT22;51131;52.298;13.686;2022-11-15T13:40:55;18.80;61.60
64705;DHT22;51131;52.298;13.686;2022-11-15T13:48:36;18.80;61.70
64705;DHT22;51131;52.298;13.686;2022-11-15T13:51:03;18.80;61.70
64705;DHT22;51131;52.298;13.686;2022-11-15T13:53:31;18.80;61.70
64705;DHT22;51131;52.298;13.686;2022-11-15T13:55:59;18.80;61.70
64705;DHT22;51131;52.298;13.686;2022-11-15T13:58:26;18.80;61.80
64705;DHT22;51131;52.298;13.686;2022-11-15T14:01:00;18.80;61.80
64705;DHT22;51131;52.298;13.686;2022-11-15T14:03:28;18.80;61.80
64705;DHT22;51131;52.298;13.686;2022-11-15T14:08:33;18.80;61.90
64705;DHT22;51131;52.298;13.686;2022-11-15T14:11:08;18.80;62.00
64705;DHT22;51131;52.298;13.686;2022-11-15T14:13:35;18.80;62.00
64705;DHT22;51131;52.298;13.686;2022-11-15T14:16:23;18.90;62.10
64705;DHT22;51131;52.298;13.686;2022-11-15T14:18:50;18.90;62.10
64705;DHT22;51131;52.298;13.686;2022-11-15T14:21:17;18.90;62.10
64705;DHT22;51131;52.298;13.686;2022-11-15T14:23:44;18.90;62.10
64705;DHT22;51131;52.298;13.686;2022-11-15T14:26:25;18.80;62.00
64705;DHT22;51131;52.298;13.686;2022-11-15T14:28:52;18.90;62.10
64705;DHT22;51131;52.298;13.686;2022-11-15T14:31:19;18.90;62.20
64705;DHT22;51131;52.298;13.686;2022-11-15T14:33:46;18.90;62.20
64705;DHT22;51131;52.298;13.686;2022-11-15T14:38:39;18.90;62.20
64705;DHT22;51131;52.298;13.686;2022-11-15T14:41:10;18.90;62.20
64705;DHT22;51131;52.298;13.686;2022-11-15T14:43:43;18.90;62.30
64705;DHT22;51131;52.298;13.686;2022-11-15T14:46:09;19.00;62.30
64705;DHT22;51131;52.298;13.686;2022-11-15T14:48:36;19.00;62.20
64705;DHT22;51131;52.298;13.686;2022-11-15T14:51:03;19.10;62.10
64705;DHT22;51131;52.298;13.686;2022-11-15T14:53:29;19.20;62.00
64705;DHT22;51131;52.298;13.686;2022-11-15T14:55:56;19.20;61.80
64705;DHT22;51131;52.298;13.686;2022-11-15T14:58:23;19.20;61.60
64705;DHT22;51131;52.298;13.686;2022-11-15T15:00:50;19.20;61.60
64705;DHT22;51131;52.298;13.686;2022-11-15T15:03:16;19.20;61.60
64705;DHT22;51131;52.298;13.686;2022-11-15T15:05:43;19.10;61.70
64705;DHT22;51131;52.298;13.686;2022-11-15T15:08:10;19.10;61.70
64705;DHT22;51131;52.298;13.686;2022-11-15T15:10:38;19.10;61.80
64705;DHT22;51131;52.298;13.686;2022-11-15T15:13:18;19.00;61.70
64705;DHT22;51131;52.298;13.686;2022-11-15T15:15:45;19.00;61.90
64705;DHT22;51131;52.298;13.686;2022-11-15T15:18:12;19.10;62.00
64705;DHT22;51131;52.298;13.686;2022-11-15T15:20:39;19.10;62.40
64705;DHT22;51131;52.298;13.686;2022-11-15T15:23:17;19.10;62.40
64705;DHT22;51131;52.298;13.686;2022-11-15T15:25:44;19.00;62.90
64705;DHT22;51131;52.298;13.686;2022-11-15T15:28:12;19.00;63.00
64705;DHT22;51131;52.298;13.686;2022-11-15T15:30:39;19.00;63.10
64705;DHT22;51131;52.298;13.686;2022-11-15T15:33:05;19.00;63.20
64705;DHT22;51131;52.298;13.686;2022-11-15T15:35:33;19.00;63.10
64705;DHT22;51131;52.298;13.686;2022-11-15T15:38:00;19.00;62.90
64705;DHT22;51131;52.298;13.686;2022-11-15T15:40:28;19.00;62.80
64705;DHT22;51131;52.298;13.686;2022-11-15T15:42:55;19.00;62.80
64705;DHT22;51131;52.298;13.686;2022-11-15T15:45:21;19.00;62.80
64705;DHT22;51131;52.298;13.686;2022-11-15T15:47:48;19.00;62.70
64705;DHT22;51131;52.298;13.686;2022-11-15T15:50:28;19.00;62.70
64705;DHT22;51131;52.298;13.686;2022-11-15T15:52:56;18.90;62.60
64705;DHT22;51131;52.298;13.686;2022-11-15T15:55:23;19.00;62.60
64705;DHT22;51131;52.298;13.686;2022-11-15T15:57:50;18.90;62.50
64705;DHT22;51131;52.298;13.686;2022-11-15T16:00:17;18.90;62.60
64705;DHT22;51131;52.298;13.686;2022-11-15T16:02:44;18.90;62.50
64705;DHT22;51131;52.298;13.686;2022-11-15T16:05:11;18.90;62.40
64705;DHT22;51131;52.298;13.686;2022-11-15T16:07:39;18.90;62.50
64705;DHT22;51131;52.298;13.686;2022-11-15T16:10:15;18.90;62.50
64705;DHT22;51131;52.298;13.686;2022-11-15T16:12:44;18.90;62.50
64705;DHT22;51131;52.298;13.686;2022-11-15T16:15:11;18.90;62.50
64705;DHT22;51131;52.298;13.686;2022-11-15T16:17:38;18.90;62.40
64705;DHT22;51131;52.298;13.686;2022-11-15T16:20:06;18.90;62.50
64705;DHT22;51131;52.298;13.686;2022-11-15T16:22:33;18.90;62.50
64705;DHT22;51131;52.298;13.686;2022-11-15T16:24:59;18.90;62.50
64705;DHT22;51131;52.298;13.686;2022-11-15T16:27:26;18.90;62.40
64705;DHT22;51131;52.298;13.686;2022-11-15T16:29:53;18.90;62.30
64705;DHT22;51131;52.298;13.686;2022-11-15T16:32:19;18.90;63.00
64705;DHT22;51131;52.298;13.686;2022-11-15T16:34:46;18.90;62.40
64705;DHT22;51131;52.298;13.686;2022-11-15T16:37:21;18.90;62.40
64705;DHT22;51131;52.298;13.686;2022-11-15T16:39:48;18.90;62.30
64705;DHT22;51131;52.298;13.686;2022-11-15T16:42:15;18.90;62.10
64705;DHT22;51131;52.298;13.686;2022-11-15T16:44:42;18.90;62.20
64705;DHT22;51131;52.298;13.686;2022-11-15T16:47:16;18.90;62.30
64705;DHT22;51131;52.298;13.686;2022-11-15T16:49:43;18.40;61.80
64705;DHT22;51131;52.298;13.686;2022-11-15T16:52:10;18.90;62.00
64705;DHT22;51131;52.298;13.686;2022-11-15T16:54:37;18.90;62.10
64705;DHT22;51131;52.298;13.686;2022-11-15T16:57:04;18.90;62.20
64705;DHT22;51131;52.298;13.686;2022-11-15T16:59:31;18.90;62.30
64705;DHT22;51131;52.298;13.686;2022-11-15T17:02:07;18.90;62.30
64705;DHT22;51131;52.298;13.686;2022-11-15T17:04:35;18.90;62.20
64705;DHT22;51131;52.298;13.686;2022-11-15T17:07:01;18.90;62.20
64705;DHT22;51131;52.298;13.686;2022-11-15T17:09:28;18.90;62.20
64705;DHT22;51131;52.298;13.686;2022-11-15T17:11:55;18.90;62.20
64705;DHT22;51131;52.298;13.686;2022-11-15T17:14:22;18.90;62.10
64705;DHT22;51131;52.298;13.686;2022-11-15T17:16:48;18.90;61.90
64705;DHT22;51131;52.298;13.686;2022-11-15T17:19:19;19.40;62.60
64705;DHT22;51131;52.298;13.686;2022-11-15T17:21:46;18.90;62.20
64705;DHT22;51131;52.298;13.686;2022-11-15T17:24:15;18.90;62.10
64705;DHT22;51131;52.298;13.686;2022-11-15T17:26:42;18.90;62.20
64705;DHT22;51131;52.298;13.686;2022-11-15T17:29:09;18.90;62.20
64705;DHT22;51131;52.298;13.686;2022-11-15T17:31:36;18.80;62.10
64705;DHT22;51131;52.298;13.686;2022-11-15T17:34:03;19.30;62.50
64705;DHT22;51131;52.298;13.686;2022-11-15T17:36:31;18.90;61.90
64705;DHT22;51131;52.298;13.686;2022-11-15T17:38:58;18.90;61.80
64705;DHT22;51131;52.298;13.686;2022-11-15T17:41:26;18.90;62.00
64705;DHT22;51131;52.298;13.686;2022-11-15T17:43:54;18.90;62.10
64705;DHT22;51131;52.298;13.686;2022-11-15T17:46:21;18.80;62.10